DURO2: Washita River Durwood, OK

Data processed at Fri Jan 05 2018 23:35


All information presented herein is the property of the government of the United States of America and may be revised or deleted at any time without prior notice.
Dissemination of this information without the expressed written consent of the Public Affairs Office, Tulsa District U.S. Army Corps of Engineers is strictly prohibited.
These data are gathered electronically and, as presented, have not undergone any form of quality control. These data are not guaranteed to be valid or correct.
Go to home page.
Go to station list.

Upstream stations:

Downstream station:
Previous Day
Next Day
Current Day
    
SHEF ID:       DURO2     Washita River near Dickson, OK
STATION TYPE:  

               PRECIP PRECIP(A)     STAGE  RIV-FLOW  BAT-LOAD
                   in        in        ft       cfs      volt
              Ccp-Rev   Ccp-Rev   Ccp-Rev   Ccp-Rev   Ccp-Rev
(US/Central)
01/03 00:00      0.00      ----      6.69       573     12.25
01/03 01:00      0.00      ----      6.71       585     12.25
01/03 02:00      0.00      ----      6.87       685     12.25
01/03 03:00      0.00      ----      6.73       597     12.17
01/03 04:00      0.00      ----      6.65       548     12.17
01/03 05:00      0.00      ----      6.63       535     12.17
01/03 06:00      0.00      ----      6.56       491     12.17
01/03 07:00      0.00      ----      6.53       473     12.09
01/03 08:00      0.00      ----      6.44       418     12.09
01/03 09:00      0.00      ----      6.44       418     13.37
01/03 10:00      0.00      ----      6.36       370     12.65
01/03 11:00      0.00      ----      6.51       460     13.21
01/03 12:00      0.00      ----      6.41       400     12.81
01/03 13:00      0.00      ----      6.40       394     12.73
01/03 14:00      0.00      ----      6.35       364     12.73
01/03 15:00      0.00      ----      6.37       376      ----
01/03 16:00      0.00      ----      6.42       406     12.65
01/03 17:00      0.00      ----      6.49       448     12.57
01/03 18:00      0.00      ----      6.53       473     12.49
01/03 19:00      0.00      ----      6.57       497     12.49
01/03 20:00      0.00      ----      6.60       516     12.41
01/03 21:00      0.00      ----      6.62       529     12.41
01/03 22:00      0.00      ----      6.64       541     12.33
01/03 23:00      0.00      ----      6.66       554     12.33